Terminal Aerodrome Forecast
Issued by NWS

Home | Current Version | Previous Version | Text Only | Print | Product List | Glossary On
Versions: 1 2 3 4 5 6 7 8 9 10 11 12 13 14 15 16 17 18 19 20 21 22 23
000
FTUS41 KGYX 262351 AAB
TAFLEB
TAF AMD
KLEB 262351Z 2700/2724 34003KT 2SM -RA BR BKN004 OVC060
      TEMPO 2700/2703 5SM -RA OVC008
     FM270300 00000KT 4SM BR OVC015
      TEMPO 2703/2706 4SM -RA OVC015
     FM270600 00000KT P6SM OVC050
     FM270900 00000KT 4SM BR OVC050
     FM271500 35002KT P6SM OVC050=

USA.gov is the U.S. government's official web portal to all federal, state and local government web resources and services.